Carolina, PR

5:40 AM AST on August 21, 2014 (GMT -0400)
Mercedita | Change Station
CLOSE
Current Station
Airport
Location: Ponce,
Elevation: 30 ft
Nearby Weather Stations

Elev 30 ft 18.01 °N, 66.56 °W | Updated 50 minutes ago

Clear
Clear
75 °F
Feels Like 75 °F
N
0
Wind Variable Wind from North

Today
High -- | Low -- °F
--% Chance of Precip.
Yesterday
High -- | Low -- °F
Precip. -- in
6:07 AM 6:46 PM
Waning Crescent, 15% visible
Pressure 29.93 in
Visibility 10.0 miles
Clouds Clear
Dew Point 72 °F
Humidity 89%
Rainfall 0.00 in
Snow Depth Not available.
UV 0 out of 12
Pollen Not available.
Air Quality Not available.
Flu Activity Not available.
METAR TJPS 210850Z 00000KT 10SM SKC 24/22 A2993

More Conditions Fewer Conditions

Pressure 29.93 in
Visibility 10.0 miles
Clouds Clear
Dew Point 72 °F
Humidity 89%
Rainfall 0.00 in
Snow Depth Not available.
UV 0 out of 12
Pollen Not available.
Air Quality Not available.
Flu Activity Not available.
METAR TJPS 210850Z 00000KT 10SM SKC 24/22 A2993

More Conditions Fewer Conditions

10-Day Weather Forecast

Almanac

Astronomy

Aug. 21, 2014 Rise Set
Actual Time 6:07 AM AST 6:46 PM AST
Civil Twilight 5:44 AM AST 7:09 PM AST
Nautical Twilight 5:18 AM AST 7:35 PM AST
Astronomical Twilight 4:51 AM AST 8:01 PM AST
Moon 2:47 AM AST 4:00 PM AST
Length of Visible Light 13h 24m
Length of Day
12h 39m
Tomorrow will be 0m 57s shorter.
Waning Crescent, 15% of the Moon is Illuminated
Today
Waning Crescent
Aug 25
New
Sep 2
First Quarter
Sep 8
Full
Sep 15
Last Quarter

Community

WunderPhotos

Upload Photos

1,745,871 photos uploaded!

Nearby

Snow Depth

Station Depth Elevation
No new snow has been reported.

Earthquake Activity

City Distance Mag. Time & Date
No recent earthquake activity has been reported nearby.
Minimum magnitude displayed is 2.5.

Coastal Water Temperatures

Place Temperature
San Juan, PR 84.9 °F
Mayaguez, PR 84.9 °F
Esperanza, PR 84.0 °F

Nearby Weather Stations